createdAt,value
2022-12-27T00:02:00.947Z,2.20
2022-12-27T00:04:30.126Z,2.10
2022-12-27T00:07:00.374Z,1.92
2022-12-27T00:09:28.872Z,2.20
2022-12-27T00:11:59.967Z,2.03
2022-12-27T00:14:28.960Z,2.53
2022-12-27T00:16:57.610Z,2.20
2022-12-27T00:19:26.153Z,2.10
2022-12-27T00:21:54.927Z,2.53
2022-12-27T00:24:25.412Z,2.50
2022-12-27T00:26:54.320Z,2.22
2022-12-27T00:29:23.399Z,2.13
2022-12-27T00:31:52.160Z,2.20
2022-12-27T00:34:20.695Z,2.03
2022-12-27T00:36:49.679Z,2.17
2022-12-27T00:39:18.265Z,3.00
2022-12-27T00:41:48.183Z,2.08
2022-12-27T00:44:17.029Z,2.22
2022-12-27T00:46:45.850Z,2.35
2022-12-27T00:49:14.599Z,2.30
2022-12-27T00:51:43.390Z,2.47
2022-12-27T00:54:12.003Z,2.67
2022-12-27T00:56:40.474Z,2.72
2022-12-27T00:59:13.507Z,2.38
2022-12-27T01:01:42.711Z,2.65
2022-12-27T01:04:14.292Z,2.72
2022-12-27T01:06:42.739Z,2.22
2022-12-27T01:09:11.315Z,1.98
2022-12-27T01:11:41.660Z,3.25
2022-12-27T01:14:11.802Z,2.15
2022-12-27T01:16:40.718Z,2.38
2022-12-27T01:19:09.640Z,2.50
2022-12-27T01:21:38.454Z,2.80
2022-12-27T01:24:07.685Z,2.33
2022-12-27T01:26:36.481Z,2.53
2022-12-27T01:29:05.175Z,2.70
2022-12-27T01:31:35.246Z,2.40
2022-12-27T01:34:03.785Z,3.08
2022-12-27T01:36:32.642Z,2.67
2022-12-27T01:39:01.631Z,2.53
2022-12-27T01:41:49.569Z,2.10
2022-12-27T01:44:54.405Z,2.65
2022-12-27T01:47:30.365Z,1.83
2022-12-27T01:50:06.659Z,2.65
2022-12-27T01:52:40.767Z,1.92
2022-12-27T01:55:18.698Z,3.03
2022-12-27T01:57:49.008Z,1.90
2022-12-27T02:00:17.815Z,3.30
2022-12-27T02:02:48.208Z,3.08
2022-12-27T02:05:20.226Z,2.10
2022-12-27T02:07:59.722Z,2.50
2022-12-27T02:10:30.070Z,2.50
2022-12-27T02:13:00.024Z,2.60
2022-12-27T02:15:28.857Z,3.55
2022-12-27T02:17:59.457Z,2.10
2022-12-27T02:20:32.406Z,2.30
2022-12-27T02:23:58.710Z,1.95
2022-12-27T02:26:55.437Z,2.40
2022-12-27T02:29:42.636Z,4.10
2022-12-27T02:32:16.030Z,2.42
2022-12-27T02:34:52.495Z,2.08
2022-12-27T02:37:24.477Z,2.63
2022-12-27T02:39:54.780Z,2.20
2022-12-27T02:42:41.435Z,2.15
2022-12-27T02:45:49.146Z,3.80
2022-12-27T02:48:35.150Z,2.58
2022-12-27T02:51:44.358Z,3.30
2022-12-27T02:54:26.854Z,2.20
2022-12-27T02:57:08.504Z,2.60
2022-12-27T03:00:05.339Z,3.70
2022-12-27T03:03:03.933Z,3.10
2022-12-27T03:06:10.582Z,3.15
2022-12-27T03:08:48.482Z,3.17
2022-12-27T03:11:35.377Z,3.17
2022-12-27T03:14:30.176Z,2.75
2022-12-27T03:17:04.812Z,2.72
2022-12-27T03:20:00.022Z,2.42
2022-12-27T03:23:03.129Z,4.05
2022-12-27T03:25:35.163Z,2.58
2022-12-27T03:28:27.170Z,3.08
2022-12-27T03:31:18.967Z,2.60
2022-12-27T03:33:49.745Z,3.00
2022-12-27T03:36:40.375Z,2.42
2022-12-27T03:39:14.307Z,2.70
2022-12-27T03:42:07.213Z,2.05
2022-12-27T03:44:36.028Z,2.17
2022-12-27T03:47:10.652Z,2.05
2022-12-27T03:49:45.046Z,2.35
2022-12-27T03:52:18.493Z,2.30
2022-12-27T03:54:49.956Z,2.55
2022-12-27T03:57:20.858Z,2.38
2022-12-27T03:59:49.395Z,3.05
2022-12-27T04:02:18.742Z,2.55
2022-12-27T04:04:47.446Z,3.15
2022-12-27T04:07:17.528Z,2.55
2022-12-27T04:10:03.335Z,2.90
2022-12-27T04:12:49.168Z,2.90
2022-12-27T04:15:35.022Z,3.10
2022-12-27T04:18:20.637Z,2.58
2022-12-27T04:21:06.696Z,2.38
2022-12-27T04:23:54.306Z,2.80
2022-12-27T04:26:40.213Z,2.70
2022-12-27T04:29:25.949Z,2.50
2022-12-27T04:32:12.030Z,2.70
2022-12-27T04:34:46.424Z,2.78
2022-12-27T04:37:16.861Z,2.80
2022-12-27T04:40:10.138Z,2.60
2022-12-27T04:42:56.347Z,3.53
2022-12-27T04:45:42.198Z,3.08
2022-12-27T04:48:31.390Z,2.75
2022-12-27T04:51:17.673Z,2.53
2022-12-27T04:54:03.934Z,2.40
2022-12-27T04:56:33.728Z,2.85
2022-12-27T05:02:06.783Z,2.55
2022-12-27T05:04:37.960Z,2.90
2022-12-27T05:07:22.358Z,2.40
2022-12-27T05:10:08.500Z,2.38
2022-12-27T05:12:55.768Z,3.08
2022-12-27T05:15:24.588Z,2.67
2022-12-27T05:17:53.318Z,2.95
2022-12-27T05:20:22.119Z,2.95
2022-12-27T05:23:07.929Z,2.75
2022-12-27T05:25:41.131Z,2.65
2022-12-27T05:28:12.880Z,3.13
2022-12-27T05:30:43.416Z,2.40
2022-12-27T05:33:12.322Z,2.80
2022-12-27T05:35:41.499Z,3.10
2022-12-27T05:38:10.053Z,3.20
2022-12-27T05:40:38.471Z,3.58
2022-12-27T05:43:06.890Z,2.63
2022-12-27T05:45:36.680Z,2.83
2022-12-27T05:50:33.531Z,2.40
2022-12-27T05:53:01.924Z,2.67
2022-12-27T05:55:30.309Z,2.42
2022-12-27T05:57:58.691Z,2.50
2022-12-27T06:00:27.187Z,2.33
2022-12-27T06:02:57.100Z,2.20
2022-12-27T06:05:25.581Z,2.47
2022-12-27T06:07:53.925Z,2.38
2022-12-27T06:10:22.338Z,2.30
2022-12-27T06:12:50.909Z,2.50
2022-12-27T06:15:19.684Z,2.85
2022-12-27T06:17:48.104Z,2.00
2022-12-27T06:20:18.422Z,2.58
2022-12-27T06:22:47.435Z,2.38
2022-12-27T06:25:16.191Z,1.73
2022-12-27T06:27:44.698Z,1.95
2022-12-27T06:30:15.344Z,2.95
2022-12-27T06:32:43.941Z,2.08
2022-12-27T06:35:12.709Z,2.65
2022-12-27T06:37:42.819Z,6.25
2022-12-27T06:40:12.507Z,2.85
2022-12-27T06:42:40.953Z,2.67
2022-12-27T06:45:10.419Z,5.70
2022-12-27T06:47:38.879Z,4.53
2022-12-27T06:50:08.030Z,2.45
2022-12-27T06:52:36.471Z,2.30
2022-12-27T06:55:06.821Z,3.03
2022-12-27T06:57:35.264Z,2.22
2022-12-27T07:00:04.664Z,4.55
2022-12-27T07:02:33.278Z,2.40
2022-12-27T07:05:02.584Z,2.35
2022-12-27T07:07:30.983Z,2.40
2022-12-27T07:10:00.143Z,2.10
2022-12-27T07:12:36.291Z,2.83
2022-12-27T07:15:05.981Z,2.17
2022-12-27T07:17:35.911Z,2.10
2022-12-27T07:20:04.535Z,2.13
2022-12-27T07:22:33.130Z,2.05
2022-12-27T07:25:01.552Z,2.60
2022-12-27T07:27:34.486Z,1.80
2022-12-27T07:30:03.148Z,2.42
2022-12-27T07:32:32.039Z,2.28
2022-12-27T07:35:00.471Z,1.97
2022-12-27T07:37:29.086Z,1.80
2022-12-27T07:39:57.523Z,2.00
2022-12-27T07:42:25.981Z,2.05
2022-12-27T07:44:55.847Z,2.00
2022-12-27T07:47:24.218Z,1.83
2022-12-27T07:49:52.675Z,1.85
2022-12-27T07:52:21.083Z,1.90
2022-12-27T07:54:49.484Z,2.08
2022-12-27T07:57:18.172Z,2.10
2022-12-27T07:59:46.837Z,1.88
2022-12-27T08:02:16.723Z,2.05
2022-12-27T08:04:45.323Z,2.00
2022-12-27T08:07:16.449Z,2.72
2022-12-27T08:09:46.853Z,2.20
2022-12-27T08:12:16.057Z,2.10
2022-12-27T08:14:44.569Z,3.08
2022-12-27T08:17:18.599Z,1.90
2022-12-27T08:19:47.279Z,2.03
2022-12-27T08:22:16.775Z,2.10
2022-12-27T08:24:45.278Z,2.15
2022-12-27T08:27:13.818Z,2.00
2022-12-27T08:29:42.211Z,2.08
2022-12-27T08:32:10.681Z,1.90
2022-12-27T08:34:40.457Z,3.20
2022-12-27T08:39:37.820Z,1.48
2022-12-27T08:42:06.260Z,2.15
2022-12-27T08:44:34.650Z,1.85
2022-12-27T08:47:04.452Z,2.30
2022-12-27T08:52:04.304Z,2.40
2022-12-27T08:54:32.715Z,2.80
2022-12-27T08:57:01.211Z,2.72
2022-12-27T08:59:29.683Z,2.17
2022-12-27T09:01:58.431Z,2.15
2022-12-27T09:04:26.970Z,2.47
2022-12-27T09:06:55.520Z,2.50
2022-12-27T09:09:25.477Z,2.58
2022-12-27T09:11:54.271Z,2.60
2022-12-27T09:14:22.735Z,2.28
2022-12-27T09:16:51.134Z,3.10
2022-12-27T09:19:19.549Z,2.47
2022-12-27T09:21:47.993Z,3.05
2022-12-27T09:24:16.902Z,2.70
2022-12-27T09:26:46.922Z,2.27
2022-12-27T09:29:15.449Z,2.90
2022-12-27T09:31:45.092Z,2.65
2022-12-27T09:34:13.627Z,3.20
2022-12-27T09:36:42.269Z,3.15
2022-12-27T09:39:13.647Z,3.17
2022-12-27T09:44:50.796Z,3.13
2022-12-27T09:47:26.254Z,2.63
2022-12-27T09:49:58.640Z,2.83
2022-12-27T09:52:30.818Z,2.90
2022-12-27T09:55:05.565Z,3.15
2022-12-27T09:57:38.685Z,2.90
2022-12-27T10:00:16.337Z,2.55
2022-12-27T10:02:45.564Z,2.63
2022-12-27T10:05:22.092Z,2.63
2022-12-27T10:08:03.478Z,2.40
2022-12-27T10:10:42.036Z,2.33
2022-12-27T10:13:28.068Z,2.70
2022-12-27T10:16:06.901Z,2.38
2022-12-27T10:18:45.963Z,2.53
2022-12-27T10:21:20.813Z,2.80
2022-12-27T10:23:56.672Z,2.45
2022-12-27T10:26:25.245Z,2.42
2022-12-27T10:29:00.270Z,2.83
2022-12-27T10:31:31.061Z,2.30
2022-12-27T10:34:03.920Z,2.47
2022-12-27T10:36:35.584Z,2.75
2022-12-27T10:39:05.214Z,2.30
2022-12-27T10:41:40.683Z,2.08
2022-12-27T10:44:12.987Z,2.65
2022-12-27T10:46:44.585Z,2.63
2022-12-27T10:49:24.418Z,2.88
2022-12-27T10:54:25.858Z,2.40
2022-12-27T10:56:54.968Z,2.00
2022-12-27T10:59:27.096Z,2.78
2022-12-27T11:02:18.014Z,2.22
2022-12-27T11:05:00.842Z,2.05
2022-12-27T11:07:33.975Z,2.60
2022-12-27T11:10:09.591Z,3.00
2022-12-27T11:12:38.155Z,2.67
2022-12-27T11:15:18.661Z,3.05
2022-12-27T11:17:49.199Z,2.35
2022-12-27T11:20:24.071Z,2.40
2022-12-27T11:22:55.038Z,3.50
2022-12-27T11:25:24.199Z,3.72
2022-12-27T11:27:55.994Z,3.40
2022-12-27T11:30:29.742Z,4.07
2022-12-27T11:33:03.193Z,3.55
2022-12-27T11:35:32.489Z,2.80
2022-12-27T11:38:01.141Z,3.53
2022-12-27T11:40:34.652Z,3.60
2022-12-27T11:43:08.838Z,2.88
2022-12-27T11:45:43.388Z,2.65
2022-12-27T11:48:22.083Z,3.20
2022-12-27T11:51:18.017Z,3.85
2022-12-27T11:54:21.950Z,3.20
2022-12-27T11:56:54.079Z,3.47
2022-12-27T11:59:34.267Z,3.28
2022-12-27T12:02:27.222Z,4.03
2022-12-27T12:05:37.532Z,1.95
2022-12-27T12:08:27.613Z,2.60
2022-12-27T12:11:08.101Z,2.58
2022-12-27T12:14:04.468Z,2.13
2022-12-27T12:16:53.163Z,2.20
2022-12-27T12:19:36.645Z,2.28
2022-12-27T12:22:25.527Z,2.28
2022-12-27T12:25:22.467Z,4.10
2022-12-27T12:28:47.307Z,2.80
2022-12-27T12:31:21.042Z,3.10
2022-12-27T12:34:05.736Z,2.00
2022-12-27T12:36:54.190Z,3.17
2022-12-27T12:39:34.025Z,2.53
2022-12-27T12:45:03.188Z,4.40
2022-12-27T12:48:03.639Z,3.08
2022-12-27T12:50:48.309Z,2.65
2022-12-27T12:53:51.358Z,2.03
2022-12-27T12:56:38.704Z,2.35
2022-12-27T12:59:21.382Z,2.70
2022-12-27T13:02:02.646Z,1.90
2022-12-27T13:04:44.103Z,2.42
2022-12-27T13:07:40.822Z,2.03
2022-12-27T13:10:51.727Z,2.88
2022-12-27T13:13:28.093Z,3.45
2022-12-27T13:16:10.245Z,2.80
2022-12-27T13:18:49.968Z,2.30
2022-12-27T13:21:30.907Z,2.47
2022-12-27T13:24:10.344Z,2.42
2022-12-27T13:26:48.751Z,3.20
2022-12-27T13:29:41.498Z,2.47
2022-12-27T13:32:20.683Z,2.90
2022-12-27T13:35:02.671Z,2.65
2022-12-27T13:37:45.122Z,2.72
2022-12-27T13:40:35.996Z,2.58
2022-12-27T13:43:47.801Z,2.45
2022-12-27T13:46:42.485Z,2.20
2022-12-27T13:49:35.689Z,2.05
2022-12-27T13:52:12.849Z,2.60
2022-12-27T13:55:18.615Z,3.15
2022-12-27T13:58:12.035Z,2.70
2022-12-27T14:00:49.252Z,2.47
2022-12-27T14:03:44.456Z,5.88
2022-12-27T14:06:56.134Z,6.10
2022-12-27T14:09:52.277Z,2.45
2022-12-27T14:13:00.659Z,2.28
2022-12-27T14:15:40.344Z,9.38
2022-12-27T14:18:37.846Z,10.20
2022-12-27T14:21:21.512Z,18.52
2022-12-27T14:24:04.012Z,3.33
2022-12-27T14:27:17.339Z,3.20
2022-12-27T14:30:27.819Z,3.40
2022-12-27T14:33:23.714Z,4.57
2022-12-27T14:36:28.189Z,4.32
2022-12-27T14:39:35.226Z,3.13
2022-12-27T14:42:55.797Z,3.17
2022-12-27T14:45:57.144Z,4.72
2022-12-27T14:48:59.760Z,3.00
2022-12-27T14:52:07.217Z,2.85
2022-12-27T14:55:11.898Z,3.30
2022-12-27T14:57:49.307Z,3.60
2022-12-27T15:00:20.465Z,2.92
2022-12-27T15:03:08.951Z,3.90
2022-12-27T15:05:55.074Z,3.35
2022-12-27T15:08:40.934Z,3.10
2022-12-27T15:11:28.791Z,3.42
2022-12-27T15:14:11.076Z,3.50
2022-12-27T15:16:50.418Z,3.85
2022-12-27T15:19:34.156Z,3.97
2022-12-27T15:22:12.478Z,3.83
2022-12-27T15:24:54.036Z,3.22
2022-12-27T15:27:28.823Z,2.65
2022-12-27T15:30:12.249Z,2.97
2022-12-27T15:32:53.301Z,3.42
2022-12-27T15:35:45.588Z,3.63
2022-12-27T15:38:16.571Z,3.05
2022-12-27T15:41:05.387Z,2.85
2022-12-27T15:43:51.253Z,3.28
2022-12-27T15:46:58.259Z,3.40
2022-12-27T15:49:48.705Z,3.10
2022-12-27T15:52:25.286Z,3.35
2022-12-27T15:55:15.593Z,2.70
2022-12-27T15:58:05.679Z,4.00
2022-12-27T16:00:34.885Z,3.13
2022-12-27T16:03:06.682Z,2.85
2022-12-27T16:05:46.851Z,2.42
2022-12-27T16:08:39.839Z,2.70
2022-12-27T16:11:13.915Z,2.60
2022-12-27T16:13:51.783Z,2.40
2022-12-27T16:16:57.465Z,3.00
2022-12-27T16:19:55.607Z,2.85
2022-12-27T16:22:33.273Z,2.90
2022-12-27T16:25:30.129Z,3.38
2022-12-27T16:28:01.661Z,3.10
2022-12-27T16:30:47.217Z,3.15
2022-12-27T16:33:33.391Z,2.65
2022-12-27T16:36:17.440Z,3.55
2022-12-27T16:38:50.984Z,3.30
2022-12-27T16:41:33.256Z,3.28
2022-12-27T16:44:15.307Z,4.82
2022-12-27T16:46:57.738Z,3.33
2022-12-27T16:49:54.795Z,4.38
2022-12-27T16:52:42.793Z,4.63
2022-12-27T16:55:30.766Z,3.55
2022-12-27T16:58:21.523Z,4.20
2022-12-27T17:00:50.969Z,3.72
2022-12-27T17:03:46.172Z,4.85
2022-12-27T17:06:52.100Z,3.85
2022-12-27T17:09:45.606Z,4.40
2022-12-27T17:12:22.536Z,5.60
2022-12-27T17:14:55.298Z,5.43
2022-12-27T17:17:25.264Z,5.88
2022-12-27T17:19:59.781Z,3.90
2022-12-27T17:22:34.464Z,2.85
2022-12-27T17:25:16.301Z,3.97
2022-12-27T17:28:04.480Z,4.07
2022-12-27T17:30:44.834Z,4.05
2022-12-27T17:33:37.276Z,3.97
2022-12-27T17:36:30.580Z,4.10
2022-12-27T17:39:14.221Z,4.88
2022-12-27T17:42:09.681Z,4.85
2022-12-27T17:44:52.167Z,4.25
2022-12-27T17:47:34.376Z,4.85
2022-12-27T17:50:06.084Z,4.38
2022-12-27T17:52:56.081Z,4.15
2022-12-27T17:55:45.245Z,4.70
2022-12-27T17:58:16.838Z,12.80
2022-12-27T18:00:54.833Z,10.60
2022-12-27T18:03:26.083Z,12.38
2022-12-27T18:05:54.555Z,6.20
2022-12-27T18:08:29.233Z,6.70
2022-12-27T18:10:59.165Z,9.38
2022-12-27T18:13:29.678Z,6.85
2022-12-27T18:15:59.108Z,6.30
2022-12-27T18:18:30.347Z,6.57
2022-12-27T18:21:00.617Z,5.35
2022-12-27T18:23:30.996Z,5.38
2022-12-27T18:26:12.799Z,6.03
2022-12-27T18:28:42.530Z,5.65
2022-12-27T18:31:16.924Z,5.65
2022-12-27T18:33:50.945Z,5.05
2022-12-27T18:36:26.393Z,6.38
2022-12-27T18:39:00.274Z,5.60
2022-12-27T18:41:34.771Z,5.20
2022-12-27T18:44:05.142Z,5.03
2022-12-27T18:46:37.410Z,4.70
2022-12-27T18:49:06.765Z,4.50
2022-12-27T18:51:37.312Z,4.93
2022-12-27T18:54:23.064Z,6.63
2022-12-27T18:56:55.554Z,6.40
2022-12-27T18:59:27.895Z,5.38
2022-12-27T19:01:57.871Z,5.47
2022-12-27T19:04:28.961Z,5.90
2022-12-27T19:07:06.861Z,5.10
2022-12-27T19:09:39.126Z,4.70
2022-12-27T19:12:20.267Z,5.03
2022-12-27T19:14:49.063Z,4.93
2022-12-27T19:17:20.423Z,5.38
2022-12-27T19:19:51.037Z,4.97
2022-12-27T19:22:36.834Z,4.93
2022-12-27T19:25:20.531Z,3.92
2022-12-27T19:27:58.678Z,4.40
2022-12-27T19:30:33.306Z,3.90
2022-12-27T19:33:03.423Z,3.78
2022-12-27T19:35:31.926Z,4.45
2022-12-27T19:38:02.392Z,4.00
2022-12-27T19:40:32.503Z,4.78
2022-12-27T19:43:01.233Z,4.15
2022-12-27T19:45:29.982Z,4.45
2022-12-27T19:47:58.958Z,5.23
2022-12-27T19:50:27.501Z,4.85
2022-12-27T19:52:56.075Z,4.47
2022-12-27T19:55:26.899Z,4.97
2022-12-27T19:57:56.662Z,5.13
2022-12-27T20:02:53.484Z,5.50
2022-12-27T20:06:12.825Z,5.15
2022-12-27T20:08:25.896Z,5.30
2022-12-27T20:10:54.593Z,5.18
2022-12-27T20:13:25.314Z,5.45
2022-12-27T20:15:55.709Z,7.53
2022-12-27T20:18:25.160Z,6.47
2022-12-27T20:20:54.384Z,7.57
2022-12-27T20:23:22.845Z,12.85
2022-12-27T20:25:51.503Z,9.15
2022-12-27T20:28:20.505Z,5.85
2022-12-27T20:30:50.315Z,6.05
2022-12-27T20:35:55.191Z,6.68
2022-12-27T20:38:23.781Z,5.90
2022-12-27T20:40:52.416Z,5.80
2022-12-27T20:43:20.942Z,5.68
2022-12-27T20:45:50.811Z,5.10
2022-12-27T20:48:19.232Z,4.78
2022-12-27T20:50:47.790Z,4.90
2022-12-27T20:53:16.152Z,4.40
2022-12-27T20:55:44.902Z,4.97
2022-12-27T20:58:13.372Z,4.30
2022-12-27T21:00:41.802Z,4.55
2022-12-27T21:03:11.696Z,3.42
2022-12-27T21:05:40.125Z,4.60
2022-12-27T21:08:09.410Z,3.50
2022-12-27T21:10:38.003Z,4.95
2022-12-27T21:13:06.447Z,4.15
2022-12-27T21:15:40.447Z,4.90
2022-12-27T21:18:12.161Z,5.05
2022-12-27T21:23:09.012Z,5.35
2022-12-27T21:25:37.418Z,5.63
2022-12-27T21:28:06.484Z,5.93
2022-12-27T21:30:34.899Z,5.00
2022-12-27T21:33:03.337Z,4.10
2022-12-27T21:35:33.111Z,4.30
2022-12-27T21:40:29.793Z,3.70
2022-12-27T21:42:58.179Z,4.00
2022-12-27T21:45:26.588Z,4.78
2022-12-27T21:47:55.076Z,4.53
2022-12-27T21:50:23.464Z,4.75
2022-12-27T21:52:53.296Z,5.40
2022-12-27T21:55:21.716Z,5.55
2022-12-27T21:57:50.085Z,7.15
2022-12-27T22:00:18.677Z,5.78
2022-12-27T22:02:47.147Z,5.85
2022-12-27T22:05:15.809Z,6.45
2022-12-27T22:07:44.815Z,6.95
2022-12-27T22:10:14.612Z,7.53
2022-12-27T22:15:12.113Z,7.32
2022-12-27T22:17:40.465Z,6.72
2022-12-27T22:20:09.902Z,7.93
2022-12-27T22:22:38.348Z,9.05
2022-12-27T22:25:07.859Z,8.43
2022-12-27T22:27:37.646Z,6.80
2022-12-27T22:32:34.821Z,6.30
2022-12-27T22:35:03.198Z,6.80
2022-12-27T22:37:31.578Z,7.22
2022-12-27T22:40:00.180Z,6.38
2022-12-27T22:42:29.243Z,7.47
2022-12-27T22:44:59.039Z,6.75
2022-12-27T22:47:28.337Z,6.88
2022-12-27T22:49:57.388Z,6.93
2022-12-27T22:52:25.804Z,5.47
2022-12-27T22:55:04.140Z,6.50
2022-12-27T22:57:35.608Z,7.22
2022-12-27T23:00:06.439Z,6.70
2022-12-27T23:02:35.251Z,6.55
2022-12-27T23:05:03.968Z,5.73
2022-12-27T23:08:04.221Z,5.72
2022-12-27T23:10:21.298Z,6.13
2022-12-27T23:12:49.716Z,5.03
2022-12-27T23:15:19.587Z,5.38
2022-12-27T23:17:47.995Z,5.45
2022-12-27T23:20:16.525Z,4.90
2022-12-27T23:22:45.013Z,5.13
2022-12-27T23:25:13.478Z,5.05
2022-12-27T23:27:41.872Z,5.38
2022-12-27T23:30:11.783Z,5.75
2022-12-27T23:32:41.519Z,7.50
2022-12-27T23:37:38.621Z,5.35
2022-12-27T23:40:08.295Z,6.07
2022-12-27T23:45:06.179Z,6.60
2022-12-27T23:47:34.931Z,7.40
2022-12-27T23:50:06.207Z,7.30
2022-12-27T23:52:34.859Z,7.90
2022-12-27T23:55:03.605Z,7.68
2022-12-27T23:57:32.539Z,8.57
